sensor_id;sensor_type;location;lat;lon;timestamp;P1;durP1;ratioP1;P2;durP2;ratioP2
60054;SDS011;45930;53.514;55.904;2023-07-20T00:00:26;51.15;;;28.80;;
60054;SDS011;45930;53.514;55.904;2023-07-20T00:01:27;47.40;;;30.17;;
60054;SDS011;45930;53.514;55.904;2023-07-20T00:02:28;54.88;;;29.77;;
60054;SDS011;45930;53.514;55.904;2023-07-20T00:03:28;48.28;;;28.58;;
60054;SDS011;45930;53.514;55.904;2023-07-20T00:04:29;49.03;;;29.35;;
60054;SDS011;45930;53.514;55.904;2023-07-20T00:05:30;51.97;;;29.80;;
60054;SDS011;45930;53.514;55.904;2023-07-20T00:06:31;54.22;;;31.30;;
60054;SDS011;45930;53.514;55.904;2023-07-20T00:07:32;50.00;;;29.73;;
60054;SDS011;45930;53.514;55.904;2023-07-20T00:08:32;52.17;;;30.50;;
60054;SDS011;45930;53.514;55.904;2023-07-20T00:09:33;56.15;;;30.52;;
60054;SDS011;45930;53.514;55.904;2023-07-20T00:10:34;56.25;;;32.13;;
60054;SDS011;45930;53.514;55.904;2023-07-20T00:11:35;51.45;;;27.27;;
60054;SDS011;45930;53.514;55.904;2023-07-20T00:12:40;50.90;;;30.63;;
60054;SDS011;45930;53.514;55.904;2023-07-20T00:13:41;47.67;;;30.23;;
60054;SDS011;45930;53.514;55.904;2023-07-20T00:14:41;47.47;;;28.05;;
60054;SDS011;45930;53.514;55.904;2023-07-20T00:15:42;55.60;;;29.38;;
60054;SDS011;45930;53.514;55.904;2023-07-20T00:16:43;52.83;;;28.77;;
60054;SDS011;45930;53.514;55.904;2023-07-20T00:17:47;45.70;;;28.52;;
60054;SDS011;45930;53.514;55.904;2023-07-20T00:18:47;51.78;;;29.65;;
60054;SDS011;45930;53.514;55.904;2023-07-20T00:19:48;45.45;;;28.65;;
60054;SDS011;45930;53.514;55.904;2023-07-20T00:20:49;54.83;;;31.10;;
60054;SDS011;45930;53.514;55.904;2023-07-20T00:21:51;49.38;;;30.05;;
60054;SDS011;45930;53.514;55.904;2023-07-20T00:22:53;52.50;;;29.42;;
60054;SDS011;45930;53.514;55.904;2023-07-20T00:23:55;53.70;;;30.50;;
60054;SDS011;45930;53.514;55.904;2023-07-20T00:24:56;53.72;;;31.95;;
60054;SDS011;45930;53.514;55.904;2023-07-20T00:25:57;49.92;;;28.83;;
60054;SDS011;45930;53.514;55.904;2023-07-20T00:26:57;50.55;;;30.67;;
60054;SDS011;45930;53.514;55.904;2023-07-20T00:27:59;50.30;;;29.27;;
60054;SDS011;45930;53.514;55.904;2023-07-20T00:28:59;55.15;;;30.35;;
60054;SDS011;45930;53.514;55.904;2023-07-20T00:30:00;49.25;;;29.20;;
60054;SDS011;45930;53.514;55.904;2023-07-20T00:31:01;50.03;;;30.60;;
60054;SDS011;45930;53.514;55.904;2023-07-20T00:32:03;52.85;;;30.70;;
60054;SDS011;45930;53.514;55.904;2023-07-20T00:33:06;52.55;;;29.80;;
60054;SDS011;45930;53.514;55.904;2023-07-20T00:34:10;56.88;;;31.73;;
60054;SDS011;45930;53.514;55.904;2023-07-20T00:35:11;54.42;;;31.52;;
60054;SDS011;45930;53.514;55.904;2023-07-20T00:36:12;54.70;;;32.03;;
60054;SDS011;45930;53.514;55.904;2023-07-20T00:37:13;56.15;;;32.95;;
60054;SDS011;45930;53.514;55.904;2023-07-20T00:38:14;54.22;;;30.95;;
60054;SDS011;45930;53.514;55.904;2023-07-20T00:39:14;59.58;;;31.17;;
60054;SDS011;45930;53.514;55.904;2023-07-20T00:40:15;63.25;;;33.30;;
60054;SDS011;45930;53.514;55.904;2023-07-20T00:41:18;53.30;;;32.13;;
60054;SDS011;45930;53.514;55.904;2023-07-20T00:42:19;57.75;;;32.47;;
60054;SDS011;45930;53.514;55.904;2023-07-20T00:43:19;54.00;;;31.50;;
60054;SDS011;45930;53.514;55.904;2023-07-20T00:44:20;60.08;;;32.05;;
60054;SDS011;45930;53.514;55.904;2023-07-20T00:45:21;61.83;;;32.70;;
60054;SDS011;45930;53.514;55.904;2023-07-20T00:46:28;58.90;;;32.72;;
60054;SDS011;45930;53.514;55.904;2023-07-20T00:47:29;58.45;;;32.08;;
60054;SDS011;45930;53.514;55.904;2023-07-20T00:48:30;56.00;;;31.33;;
60054;SDS011;45930;53.514;55.904;2023-07-20T00:49:32;56.88;;;31.45;;
60054;SDS011;45930;53.514;55.904;2023-07-20T00:50:33;51.53;;;29.98;;
60054;SDS011;45930;53.514;55.904;2023-07-20T00:51:35;60.70;;;31.15;;
60054;SDS011;45930;53.514;55.904;2023-07-20T00:52:36;57.85;;;32.28;;
60054;SDS011;45930;53.514;55.904;2023-07-20T00:53:39;53.83;;;31.23;;
60054;SDS011;45930;53.514;55.904;2023-07-20T00:54:40;58.22;;;31.55;;
60054;SDS011;45930;53.514;55.904;2023-07-20T00:55:41;55.47;;;30.48;;
60054;SDS011;45930;53.514;55.904;2023-07-20T00:56:43;54.47;;;30.08;;
60054;SDS011;45930;53.514;55.904;2023-07-20T00:57:44;56.78;;;30.42;;
60054;SDS011;45930;53.514;55.904;2023-07-20T00:58:45;55.13;;;30.98;;
60054;SDS011;45930;53.514;55.904;2023-07-20T00:59:46;55.28;;;30.73;;
60054;SDS011;45930;53.514;55.904;2023-07-20T01:00:47;52.40;;;29.77;;
60054;SDS011;45930;53.514;55.904;2023-07-20T01:01:48;49.95;;;29.95;;
60054;SDS011;45930;53.514;55.904;2023-07-20T01:02:49;55.08;;;31.23;;
60054;SDS011;45930;53.514;55.904;2023-07-20T01:03:51;55.20;;;30.88;;
60054;SDS011;45930;53.514;55.904;2023-07-20T01:04:52;56.83;;;31.90;;
60054;SDS011;45930;53.514;55.904;2023-07-20T01:07:10;59.72;;;33.22;;
60054;SDS011;45930;53.514;55.904;2023-07-20T01:09:48;55.08;;;32.45;;
60054;SDS011;45930;53.514;55.904;2023-07-20T01:10:59;65.90;;;33.25;;
60054;SDS011;45930;53.514;55.904;2023-07-20T01:12:45;56.25;;;32.92;;
60054;SDS011;45930;53.514;55.904;2023-07-20T01:13:40;50.15;;;31.63;;
60054;SDS011;45930;53.514;55.904;2023-07-20T01:14:41;52.45;;;31.65;;
60054;SDS011;45930;53.514;55.904;2023-07-20T01:15:42;57.53;;;33.95;;
60054;SDS011;45930;53.514;55.904;2023-07-20T01:16:50;60.90;;;34.00;;
60054;SDS011;45930;53.514;55.904;2023-07-20T01:17:52;58.42;;;32.35;;
60054;SDS011;45930;53.514;55.904;2023-07-20T01:18:53;64.28;;;34.80;;
60054;SDS011;45930;53.514;55.904;2023-07-20T01:19:54;57.20;;;32.70;;
60054;SDS011;45930;53.514;55.904;2023-07-20T01:20:58;61.08;;;33.10;;
60054;SDS011;45930;53.514;55.904;2023-07-20T01:22:03;54.60;;;32.45;;
60054;SDS011;45930;53.514;55.904;2023-07-20T01:29:09;58.40;;;31.40;;
60054;SDS011;45930;53.514;55.904;2023-07-20T01:31:38;63.65;;;32.33;;
60054;SDS011;45930;53.514;55.904;2023-07-20T01:32:42;56.38;;;31.20;;
60054;SDS011;45930;53.514;55.904;2023-07-20T01:33:44;50.50;;;30.27;;
60054;SDS011;45930;53.514;55.904;2023-07-20T01:34:47;52.63;;;31.33;;
60054;SDS011;45930;53.514;55.904;2023-07-20T01:35:53;52.13;;;32.17;;
60054;SDS011;45930;53.514;55.904;2023-07-20T01:36:57;46.72;;;29.20;;
60054;SDS011;45930;53.514;55.904;2023-07-20T01:37:58;49.85;;;30.10;;
60054;SDS011;45930;53.514;55.904;2023-07-20T01:39:00;47.65;;;28.50;;
60054;SDS011;45930;53.514;55.904;2023-07-20T01:40:02;51.42;;;30.45;;
60054;SDS011;45930;53.514;55.904;2023-07-20T01:41:05;48.75;;;28.88;;
60054;SDS011;45930;53.514;55.904;2023-07-20T01:42:06;46.33;;;28.00;;
60054;SDS011;45930;53.514;55.904;2023-07-20T01:43:06;45.33;;;28.92;;
60054;SDS011;45930;53.514;55.904;2023-07-20T01:44:08;45.80;;;28.38;;
60054;SDS011;45930;53.514;55.904;2023-07-20T01:45:09;49.72;;;27.83;;
60054;SDS011;45930;53.514;55.904;2023-07-20T01:46:09;47.90;;;28.08;;
60054;SDS011;45930;53.514;55.904;2023-07-20T01:47:10;49.75;;;29.83;;
60054;SDS011;45930;53.514;55.904;2023-07-20T01:48:11;44.55;;;28.15;;
60054;SDS011;45930;53.514;55.904;2023-07-20T01:49:12;44.45;;;27.83;;
60054;SDS011;45930;53.514;55.904;2023-07-20T01:50:13;46.38;;;28.95;;
60054;SDS011;45930;53.514;55.904;2023-07-20T01:51:14;47.45;;;30.17;;
60054;SDS011;45930;53.514;55.904;2023-07-20T01:52:14;45.60;;;28.08;;
60054;SDS011;45930;53.514;55.904;2023-07-20T01:53:15;46.92;;;28.35;;
60054;SDS011;45930;53.514;55.904;2023-07-20T01:54:16;40.97;;;27.75;;
60054;SDS011;45930;53.514;55.904;2023-07-20T01:55:17;44.38;;;28.65;;
60054;SDS011;45930;53.514;55.904;2023-07-20T01:56:18;41.20;;;27.45;;
60054;SDS011;45930;53.514;55.904;2023-07-20T01:57:18;44.70;;;29.27;;
60054;SDS011;45930;53.514;55.904;2023-07-20T01:58:20;44.75;;;28.13;;
60054;SDS011;45930;53.514;55.904;2023-07-20T01:59:21;45.65;;;27.52;;
60054;SDS011;45930;53.514;55.904;2023-07-20T02:00:22;45.88;;;29.10;;
60054;SDS011;45930;53.514;55.904;2023-07-20T02:01:24;41.83;;;28.85;;
60054;SDS011;45930;53.514;55.904;2023-07-20T02:02:26;44.97;;;28.05;;
60054;SDS011;45930;53.514;55.904;2023-07-20T02:03:27;43.38;;;28.65;;
60054;SDS011;45930;53.514;55.904;2023-07-20T02:04:28;46.78;;;31.25;;
60054;SDS011;45930;53.514;55.904;2023-07-20T02:05:29;42.92;;;29.45;;
60054;SDS011;45930;53.514;55.904;2023-07-20T02:06:30;45.47;;;28.17;;
60054;SDS011;45930;53.514;55.904;2023-07-20T02:07:31;44.17;;;29.27;;
60054;SDS011;45930;53.514;55.904;2023-07-20T02:08:32;47.15;;;28.80;;
60054;SDS011;45930;53.514;55.904;2023-07-20T02:09:33;43.92;;;29.40;;
60054;SDS011;45930;53.514;55.904;2023-07-20T02:10:34;42.22;;;28.83;;
60054;SDS011;45930;53.514;55.904;2023-07-20T02:11:35;43.95;;;30.40;;
60054;SDS011;45930;53.514;55.904;2023-07-20T02:12:36;42.85;;;30.27;;
60054;SDS011;45930;53.514;55.904;2023-07-20T02:13:37;40.17;;;26.98;;
60054;SDS011;45930;53.514;55.904;2023-07-20T02:14:38;43.03;;;30.27;;
60054;SDS011;45930;53.514;55.904;2023-07-20T02:15:39;43.75;;;30.70;;
60054;SDS011;45930;53.514;55.904;2023-07-20T02:16:40;41.90;;;27.35;;
60054;SDS011;45930;53.514;55.904;2023-07-20T02:17:42;39.25;;;27.27;;
60054;SDS011;45930;53.514;55.904;2023-07-20T02:18:43;43.65;;;27.23;;
60054;SDS011;45930;53.514;55.904;2023-07-20T02:19:44;38.88;;;27.60;;
60054;SDS011;45930;53.514;55.904;2023-07-20T02:20:44;36.15;;;26.40;;
60054;SDS011;45930;53.514;55.904;2023-07-20T02:21:46;38.58;;;26.58;;
60054;SDS011;45930;53.514;55.904;2023-07-20T02:22:46;41.78;;;28.13;;
60054;SDS011;45930;53.514;55.904;2023-07-20T02:23:48;36.30;;;26.77;;
60054;SDS011;45930;53.514;55.904;2023-07-20T02:24:49;36.97;;;26.58;;
60054;SDS011;45930;53.514;55.904;2023-07-20T02:25:50;38.72;;;27.30;;
60054;SDS011;45930;53.514;55.904;2023-07-20T02:26:51;39.40;;;28.63;;
60054;SDS011;45930;53.514;55.904;2023-07-20T02:27:52;35.60;;;27.10;;
60054;SDS011;45930;53.514;55.904;2023-07-20T02:28:53;35.58;;;25.90;;
60054;SDS011;45930;53.514;55.904;2023-07-20T02:29:54;33.70;;;26.13;;
60054;SDS011;45930;53.514;55.904;2023-07-20T02:30:54;33.25;;;26.05;;
60054;SDS011;45930;53.514;55.904;2023-07-20T02:31:55;36.70;;;26.73;;
60054;SDS011;45930;53.514;55.904;2023-07-20T02:32:56;32.40;;;24.77;;
60054;SDS011;45930;53.514;55.904;2023-07-20T02:33:58;33.63;;;25.30;;
60054;SDS011;45930;53.514;55.904;2023-07-20T02:34:59;33.50;;;25.80;;
60054;SDS011;45930;53.514;55.904;2023-07-20T02:36:00;32.10;;;25.30;;
60054;SDS011;45930;53.514;55.904;2023-07-20T02:37:01;30.58;;;25.17;;
60054;SDS011;45930;53.514;55.904;2023-07-20T02:38:02;36.20;;;26.75;;
60054;SDS011;45930;53.514;55.904;2023-07-20T02:39:03;34.17;;;25.45;;
60054;SDS011;45930;53.514;55.904;2023-07-20T02:40:05;35.13;;;27.50;;
60054;SDS011;45930;53.514;55.904;2023-07-20T02:41:07;31.80;;;24.48;;
60054;SDS011;45930;53.514;55.904;2023-07-20T02:42:08;31.92;;;25.63;;
60054;SDS011;45930;53.514;55.904;2023-07-20T02:43:15;31.98;;;24.52;;
60054;SDS011;45930;53.514;55.904;2023-07-20T02:44:16;32.70;;;25.35;;
60054;SDS011;45930;53.514;55.904;2023-07-20T02:45:16;32.00;;;24.08;;
60054;SDS011;45930;53.514;55.904;2023-07-20T02:46:17;32.00;;;22.80;;
60054;SDS011;45930;53.514;55.904;2023-07-20T02:47:18;34.17;;;26.48;;
60054;SDS011;45930;53.514;55.904;2023-07-20T02:48:19;29.85;;;22.52;;
60054;SDS011;45930;53.514;55.904;2023-07-20T02:49:20;32.25;;;23.00;;
60054;SDS011;45930;53.514;55.904;2023-07-20T02:50:22;27.00;;;22.35;;
60054;SDS011;45930;53.514;55.904;2023-07-20T02:51:22;29.88;;;22.58;;
60054;SDS011;45930;53.514;55.904;2023-07-20T02:52:23;31.48;;;22.42;;
60054;SDS011;45930;53.514;55.904;2023-07-20T02:53:24;27.65;;;22.13;;
60054;SDS011;45930;53.514;55.904;2023-07-20T02:54:25;30.35;;;23.33;;
60054;SDS011;45930;53.514;55.904;2023-07-20T02:55:26;28.25;;;22.02;;
60054;SDS011;45930;53.514;55.904;2023-07-20T02:56:27;29.67;;;22.63;;
60054;SDS011;45930;53.514;55.904;2023-07-20T02:57:28;26.42;;;21.30;;
60054;SDS011;45930;53.514;55.904;2023-07-20T02:58:28;28.98;;;22.05;;
60054;SDS011;45930;53.514;55.904;2023-07-20T02:59:29;32.33;;;21.50;;
60054;SDS011;45930;53.514;55.904;2023-07-20T03:00:31;28.35;;;21.60;;
60054;SDS011;45930;53.514;55.904;2023-07-20T03:01:31;30.52;;;22.63;;
60054;SDS011;45930;53.514;55.904;2023-07-20T03:02:33;30.92;;;22.33;;
60054;SDS011;45930;53.514;55.904;2023-07-20T03:03:33;28.65;;;21.60;;
60054;SDS011;45930;53.514;55.904;2023-07-20T03:04:39;28.42;;;22.38;;
60054;SDS011;45930;53.514;55.904;2023-07-20T03:05:42;31.33;;;23.70;;
60054;SDS011;45930;53.514;55.904;2023-07-20T03:06:43;29.45;;;25.00;;
60054;SDS011;45930;53.514;55.904;2023-07-20T03:07:44;29.05;;;24.60;;
60054;SDS011;45930;53.514;55.904;2023-07-20T03:08:45;28.48;;;23.58;;
60054;SDS011;45930;53.514;55.904;2023-07-20T03:09:48;29.42;;;24.67;;
60054;SDS011;45930;53.514;55.904;2023-07-20T03:10:49;29.80;;;24.05;;
60054;SDS011;45930;53.514;55.904;2023-07-20T03:11:50;26.38;;;23.25;;
60054;SDS011;45930;53.514;55.904;2023-07-20T03:12:51;31.00;;;24.73;;
60054;SDS011;45930;53.514;55.904;2023-07-20T03:13:52;32.45;;;23.13;;
60054;SDS011;45930;53.514;55.904;2023-07-20T03:14:53;31.38;;;24.60;;
60054;SDS011;45930;53.514;55.904;2023-07-20T03:15:54;28.85;;;22.38;;
60054;SDS011;45930;53.514;55.904;2023-07-20T03:16:55;28.70;;;23.25;;
60054;SDS011;45930;53.514;55.904;2023-07-20T03:17:56;28.67;;;23.02;;
60054;SDS011;45930;53.514;55.904;2023-07-20T03:18:59;31.05;;;22.92;;
60054;SDS011;45930;53.514;55.904;2023-07-20T03:20:00;29.60;;;22.63;;
60054;SDS011;45930;53.514;55.904;2023-07-20T03:21:08;27.75;;;22.05;;
60054;SDS011;45930;53.514;55.904;2023-07-20T03:22:11;27.80;;;21.45;;
60054;SDS011;45930;53.514;55.904;2023-07-20T03:23:12;29.42;;;22.35;;
60054;SDS011;45930;53.514;55.904;2023-07-20T03:24:13;28.17;;;23.17;;
60054;SDS011;45930;53.514;55.904;2023-07-20T03:25:14;29.13;;;23.70;;
60054;SDS011;45930;53.514;55.904;2023-07-20T03:26:15;29.92;;;22.67;;
60054;SDS011;45930;53.514;55.904;2023-07-20T03:27:15;28.13;;;22.30;;
60054;SDS011;45930;53.514;55.904;2023-07-20T03:28:16;28.40;;;23.63;;
60054;SDS011;45930;53.514;55.904;2023-07-20T03:29:17;26.90;;;22.33;;
60054;SDS011;45930;53.514;55.904;2023-07-20T03:30:18;28.08;;;22.48;;
60054;SDS011;45930;53.514;55.904;2023-07-20T03:31:19;26.02;;;21.98;;
60054;SDS011;45930;53.514;55.904;2023-07-20T03:32:20;25.83;;;21.73;;
60054;SDS011;45930;53.514;55.904;2023-07-20T03:33:28;29.35;;;23.27;;
60054;SDS011;45930;53.514;55.904;2023-07-20T03:34:30;27.88;;;22.30;;
60054;SDS011;45930;53.514;55.904;2023-07-20T03:35:31;27.33;;;21.83;;
60054;SDS011;45930;53.514;55.904;2023-07-20T03:36:31;25.52;;;21.08;;
60054;SDS011;45930;53.514;55.904;2023-07-20T03:37:32;26.30;;;20.90;;
60054;SDS011;45930;53.514;55.904;2023-07-20T03:38:35;24.45;;;19.08;;
60054;SDS011;45930;53.514;55.904;2023-07-20T03:39:36;22.65;;;17.30;;
60054;SDS011;45930;53.514;55.904;2023-07-20T03:40:36;22.45;;;17.58;;
60054;SDS011;45930;53.514;55.904;2023-07-20T03:41:37;20.63;;;17.20;;
60054;SDS011;45930;53.514;55.904;2023-07-20T03:42:38;19.67;;;16.80;;
60054;SDS011;45930;53.514;55.904;2023-07-20T03:43:39;20.17;;;16.25;;
60054;SDS011;45930;53.514;55.904;2023-07-20T03:44:40;20.23;;;16.67;;
60054;SDS011;45930;53.514;55.904;2023-07-20T03:45:41;20.63;;;17.10;;
60054;SDS011;45930;53.514;55.904;2023-07-20T03:46:41;21.88;;;17.15;;
60054;SDS011;45930;53.514;55.904;2023-07-20T03:47:42;21.42;;;15.00;;
60054;SDS011;45930;53.514;55.904;2023-07-20T03:48:44;17.67;;;15.23;;
60054;SDS011;45930;53.514;55.904;2023-07-20T03:49:45;19.67;;;16.40;;
60054;SDS011;45930;53.514;55.904;2023-07-20T03:50:46;20.13;;;13.65;;
60054;SDS011;45930;53.514;55.904;2023-07-20T03:51:48;16.67;;;13.63;;
60054;SDS011;45930;53.514;55.904;2023-07-20T03:52:49;16.10;;;14.40;;
60054;SDS011;45930;53.514;55.904;2023-07-20T03:53:50;17.98;;;13.73;;
60054;SDS011;45930;53.514;55.904;2023-07-20T03:54:50;15.55;;;13.68;;
60054;SDS011;45930;53.514;55.904;2023-07-20T03:55:52;19.40;;;13.93;;
60054;SDS011;45930;53.514;55.904;2023-07-20T03:56:53;19.45;;;15.80;;
60054;SDS011;45930;53.514;55.904;2023-07-20T03:57:54;21.08;;;16.38;;
60054;SDS011;45930;53.514;55.904;2023-07-20T03:58:55;19.48;;;15.32;;
60054;SDS011;45930;53.514;55.904;2023-07-20T03:59:55;17.13;;;13.10;;
60054;SDS011;45930;53.514;55.904;2023-07-20T04:00:57;15.35;;;12.35;;
60054;SDS011;45930;53.514;55.904;2023-07-20T04:01:58;15.85;;;12.75;;
60054;SDS011;45930;53.514;55.904;2023-07-20T04:02:59;18.10;;;14.50;;
60054;SDS011;45930;53.514;55.904;2023-07-20T04:04:00;20.95;;;15.63;;
60054;SDS011;45930;53.514;55.904;2023-07-20T04:05:01;19.48;;;15.43;;
60054;SDS011;45930;53.514;55.904;2023-07-20T04:06:04;19.48;;;14.27;;
60054;SDS011;45930;53.514;55.904;2023-07-20T04:07:05;22.38;;;14.63;;
60054;SDS011;45930;53.514;55.904;2023-07-20T04:08:06;21.08;;;14.55;;
60054;SDS011;45930;53.514;55.904;2023-07-20T04:09:06;17.58;;;13.98;;
60054;SDS011;45930;53.514;55.904;2023-07-20T04:10:07;18.42;;;13.85;;
60054;SDS011;45930;53.514;55.904;2023-07-20T04:11:08;17.02;;;12.25;;
60054;SDS011;45930;53.514;55.904;2023-07-20T04:12:09;17.35;;;13.85;;
60054;SDS011;45930;53.514;55.904;2023-07-20T04:13:10;20.95;;;14.60;;
60054;SDS011;45930;53.514;55.904;2023-07-20T04:14:12;18.30;;;13.93;;
60054;SDS011;45930;53.514;55.904;2023-07-20T04:15:15;19.90;;;14.60;;
60054;SDS011;45930;53.514;55.904;2023-07-20T04:16:16;16.27;;;13.98;;
60054;SDS011;45930;53.514;55.904;2023-07-20T04:17:17;17.10;;;12.77;;
60054;SDS011;45930;53.514;55.904;2023-07-20T04:18:18;20.80;;;13.63;;
60054;SDS011;45930;53.514;55.904;2023-07-20T04:19:19;19.90;;;13.95;;
60054;SDS011;45930;53.514;55.904;2023-07-20T04:20:20;15.75;;;13.63;;
60054;SDS011;45930;53.514;55.904;2023-07-20T04:21:21;18.10;;;13.18;;
60054;SDS011;45930;53.514;55.904;2023-07-20T04:22:22;15.80;;;11.48;;
60054;SDS011;45930;53.514;55.904;2023-07-20T04:23:23;13.32;;;11.45;;
60054;SDS011;45930;53.514;55.904;2023-07-20T04:24:24;13.05;;;10.70;;
60054;SDS011;45930;53.514;55.904;2023-07-20T04:25:25;17.45;;;12.55;;
60054;SDS011;45930;53.514;55.904;2023-07-20T04:26:26;14.45;;;11.75;;
60054;SDS011;45930;53.514;55.904;2023-07-20T04:27:26;15.25;;;11.68;;
60054;SDS011;45930;53.514;55.904;2023-07-20T04:28:27;13.05;;;10.27;;
60054;SDS011;45930;53.514;55.904;2023-07-20T04:29:28;14.18;;;10.85;;
60054;SDS011;45930;53.514;55.904;2023-07-20T04:30:29;18.17;;;12.20;;
60054;SDS011;45930;53.514;55.904;2023-07-20T04:31:30;14.18;;;10.80;;
60054;SDS011;45930;53.514;55.904;2023-07-20T04:32:33;14.48;;;11.18;;
60054;SDS011;45930;53.514;55.904;2023-07-20T04:33:34;13.40;;;9.52;;
60054;SDS011;45930;53.514;55.904;2023-07-20T04:34:35;12.63;;;9.52;;
60054;SDS011;45930;53.514;55.904;2023-07-20T04:36:54;15.07;;;11.48;;
60054;SDS011;45930;53.514;55.904;2023-07-20T04:37:54;17.13;;;11.65;;
60054;SDS011;45930;53.514;55.904;2023-07-20T04:38:55;15.95;;;11.20;;
60054;SDS011;45930;53.514;55.904;2023-07-20T04:39:56;16.08;;;11.23;;
60054;SDS011;45930;53.514;55.904;2023-07-20T04:40:57;20.00;;;10.75;;
60054;SDS011;45930;53.514;55.904;2023-07-20T04:41:58;16.02;;;10.55;;
60054;SDS011;45930;53.514;55.904;2023-07-20T04:42:58;16.88;;;9.57;;
60054;SDS011;45930;53.514;55.904;2023-07-20T04:43:59;14.52;;;9.63;;
60054;SDS011;45930;53.514;55.904;2023-07-20T04:45:00;11.85;;;8.10;;
60054;SDS011;45930;53.514;55.904;2023-07-20T04:46:01;17.13;;;8.85;;
60054;SDS011;45930;53.514;55.904;2023-07-20T04:47:02;13.90;;;7.47;;
60054;SDS011;45930;53.514;55.904;2023-07-20T04:48:04;10.82;;;7.80;;
60054;SDS011;45930;53.514;55.904;2023-07-20T04:49:16;15.88;;;7.95;;
60054;SDS011;45930;53.514;55.904;2023-07-20T04:50:16;13.27;;;7.22;;
60054;SDS011;45930;53.514;55.904;2023-07-20T04:51:17;14.50;;;7.97;;
60054;SDS011;45930;53.514;55.904;2023-07-20T04:52:21;11.73;;;8.55;;
60054;SDS011;45930;53.514;55.904;2023-07-20T04:53:22;20.10;;;9.07;;
60054;SDS011;45930;53.514;55.904;2023-07-20T04:54:23;10.38;;;8.38;;
60054;SDS011;45930;53.514;55.904;2023-07-20T04:55:24;12.18;;;9.10;;
60054;SDS011;45930;53.514;55.904;2023-07-20T04:56:25;16.83;;;9.57;;
60054;SDS011;45930;53.514;55.904;2023-07-20T04:57:25;13.15;;;9.50;;
60054;SDS011;45930;53.514;55.904;2023-07-20T04:58:26;12.48;;;7.90;;
60054;SDS011;45930;53.514;55.904;2023-07-20T04:59:27;10.07;;;7.78;;
60054;SDS011;45930;53.514;55.904;2023-07-20T05:00:28;15.32;;;10.88;;
60054;SDS011;45930;53.514;55.904;2023-07-20T05:01:29;12.32;;;8.90;;
60054;SDS011;45930;53.514;55.904;2023-07-20T05:02:29;15.57;;;8.43;;
60054;SDS011;45930;53.514;55.904;2023-07-20T05:03:30;15.38;;;8.98;;
60054;SDS011;45930;53.514;55.904;2023-07-20T05:04:31;13.93;;;8.23;;
60054;SDS011;45930;53.514;55.904;2023-07-20T05:05:32;11.15;;;6.93;;
60054;SDS011;45930;53.514;55.904;2023-07-20T05:06:33;15.23;;;7.75;;
60054;SDS011;45930;53.514;55.904;2023-07-20T05:07:34;12.65;;;8.55;;
60054;SDS011;45930;53.514;55.904;2023-07-20T05:08:35;13.65;;;8.23;;
60054;SDS011;45930;53.514;55.904;2023-07-20T05:09:35;15.40;;;7.95;;
60054;SDS011;45930;53.514;55.904;2023-07-20T05:10:36;13.88;;;8.65;;
60054;SDS011;45930;53.514;55.904;2023-07-20T05:11:37;11.32;;;8.35;;
60054;SDS011;45930;53.514;55.904;2023-07-20T05:12:38;13.30;;;7.70;;
60054;SDS011;45930;53.514;55.904;2023-07-20T05:13:39;13.50;;;8.10;;
60054;SDS011;45930;53.514;55.904;2023-07-20T05:14:39;12.00;;;7.15;;
60054;SDS011;45930;53.514;55.904;2023-07-20T05:15:42;11.27;;;7.75;;
60054;SDS011;45930;53.514;55.904;2023-07-20T05:16:43;11.38;;;8.77;;
60054;SDS011;45930;53.514;55.904;2023-07-20T05:17:43;11.57;;;8.02;;
60054;SDS011;45930;53.514;55.904;2023-07-20T05:18:44;12.23;;;8.02;;
60054;SDS011;45930;53.514;55.904;2023-07-20T05:19:45;13.00;;;8.00;;
60054;SDS011;45930;53.514;55.904;2023-07-20T05:20:46;11.68;;;7.57;;
60054;SDS011;45930;53.514;55.904;2023-07-20T05:21:48;11.43;;;7.75;;
60054;SDS011;45930;53.514;55.904;2023-07-20T05:22:49;11.68;;;6.72;;
60054;SDS011;45930;53.514;55.904;2023-07-20T05:23:50;11.70;;;7.00;;
60054;SDS011;45930;53.514;55.904;2023-07-20T05:24:50;10.48;;;7.53;;
60054;SDS011;45930;53.514;55.904;2023-07-20T05:25:58;14.70;;;8.85;;
60054;SDS011;45930;53.514;55.904;2023-07-20T05:26:59;12.53;;;7.77;;
60054;SDS011;45930;53.514;55.904;2023-07-20T05:28:00;10.93;;;7.10;;
60054;SDS011;45930;53.514;55.904;2023-07-20T05:29:01;9.40;;;7.00;;
60054;SDS011;45930;53.514;55.904;2023-07-20T05:30:02;13.43;;;7.78;;
60054;SDS011;45930;53.514;55.904;2023-07-20T05:31:05;10.30;;;6.57;;
60054;SDS011;45930;53.514;55.904;2023-07-20T05:32:07;8.85;;;5.32;;
60054;SDS011;45930;53.514;55.904;2023-07-20T05:33:08;9.88;;;6.25;;
60054;SDS011;45930;53.514;55.904;2023-07-20T05:34:09;8.77;;;6.68;;
60054;SDS011;45930;53.514;55.904;2023-07-20T05:35:09;10.75;;;6.22;;
60054;SDS011;45930;53.514;55.904;2023-07-20T05:36:12;8.23;;;5.65;;
60054;SDS011;45930;53.514;55.904;2023-07-20T05:37:13;12.73;;;5.85;;
60054;SDS011;45930;53.514;55.904;2023-07-20T05:38:13;8.80;;;5.22;;
60054;SDS011;45930;53.514;55.904;2023-07-20T05:39:14;10.48;;;5.93;;
60054;SDS011;45930;53.514;55.904;2023-07-20T05:40:17;8.95;;;5.55;;
60054;SDS011;45930;53.514;55.904;2023-07-20T05:41:19;8.43;;;5.80;;
60054;SDS011;45930;53.514;55.904;2023-07-20T05:42:20;8.05;;;4.97;;
60054;SDS011;45930;53.514;55.904;2023-07-20T05:43:20;8.07;;;5.25;;
60054;SDS011;45930;53.514;55.904;2023-07-20T05:44:21;8.65;;;4.97;;
60054;SDS011;45930;53.514;55.904;2023-07-20T05:45:22;6.53;;;4.63;;
60054;SDS011;45930;53.514;55.904;2023-07-20T05:46:23;10.73;;;5.40;;
60054;SDS011;45930;53.514;55.904;2023-07-20T05:47:24;8.38;;;5.65;;
60054;SDS011;45930;53.514;55.904;2023-07-20T05:48:25;7.80;;;4.53;;
60054;SDS011;45930;53.514;55.904;2023-07-20T05:49:26;8.27;;;4.38;;
60054;SDS011;45930;53.514;55.904;2023-07-20T05:50:27;5.25;;;4.38;;
60054;SDS011;45930;53.514;55.904;2023-07-20T05:51:28;6.82;;;4.15;;
60054;SDS011;45930;53.514;55.904;2023-07-20T05:52:29;6.82;;;3.90;;
60054;SDS011;45930;53.514;55.904;2023-07-20T05:53:30;4.72;;;3.80;;
60054;SDS011;45930;53.514;55.904;2023-07-20T05:54:30;6.75;;;3.72;;
60054;SDS011;45930;53.514;55.904;2023-07-20T05:55:31;5.28;;;3.75;;
60054;SDS011;45930;53.514;55.904;2023-07-20T05:56:32;5.15;;;3.50;;
60054;SDS011;45930;53.514;55.904;2023-07-20T05:57:33;4.80;;;3.38;;
60054;SDS011;45930;53.514;55.904;2023-07-20T05:58:34;6.20;;;3.50;;
60054;SDS011;45930;53.514;55.904;2023-07-20T05:59:35;7.05;;;3.95;;
60054;SDS011;45930;53.514;55.904;2023-07-20T06:00:36;6.07;;;4.22;;
60054;SDS011;45930;53.514;55.904;2023-07-20T06:01:36;5.88;;;4.10;;
60054;SDS011;45930;53.514;55.904;2023-07-20T06:02:38;5.82;;;3.42;;
60054;SDS011;45930;53.514;55.904;2023-07-20T06:03:39;6.13;;;3.60;;
60054;SDS011;45930;53.514;55.904;2023-07-20T06:04:40;5.82;;;3.50;;
60054;SDS011;45930;53.514;55.904;2023-07-20T06:05:41;4.47;;;3.92;;
60054;SDS011;45930;53.514;55.904;2023-07-20T06:06:42;6.40;;;3.80;;
60054;SDS011;45930;53.514;55.904;2023-07-20T06:07:42;4.50;;;3.20;;